Time;durP1;ratioP1;P1;durP2;ratioP2;P2;SDS_P1;SDS_P2;PMS_P1;PMS_P2;Temp;Humidity;BMP_temperature;BMP_pressure;BME280_temperature;BME280_humidity;BME280_pressure;Samples;Min_cycle;Max_cycle;Signal;HPM_P1;HPM_P2
2022/04/24 04:05:13;;;;;;;40.13;34.33;;;8.10;99.90;;;;;;4933950;23;20231;-75
2022/04/24 04:07:41;;;;;;;38.43;32.73;;;8.10;99.90;;;;;;4858690;29;20211;-74
2022/04/24 04:10:10;;;;;;;37.13;33.13;;;8.10;99.90;;;;;;4866180;29;20262;-76
2022/04/24 04:12:38;;;;;;;36.87;31.50;;;8.10;99.90;;;;;;4877518;29;20580;-76
2022/04/24 04:15:08;;;;;;;39.37;33.93;;;8.10;99.90;;;;;;4876944;29;20215;-75
2022/04/24 04:17:36;;;;;;;39.07;33.00;;;8.10;99.90;;;;;;4877084;29;20218;-74
2022/04/24 04:20:09;;;;;;;38.37;33.70;;;8.10;99.90;;;;;;4876762;29;20265;-76
2022/04/24 04:22:48;;;;;;;38.03;32.77;;;8.10;99.90;;;;;;4878897;29;20214;-75
2022/04/24 04:25:17;;;;;;;38.97;33.67;;;8.10;99.90;;;;;;4880161;29;20197;-73
2022/04/24 04:27:45;;;;;;;38.17;32.47;;;8.10;99.90;;;;;;4880416;29;20230;-74
2022/04/24 04:30:14;;;;;;;37.77;32.53;;;8.10;99.90;;;;;;4879868;29;20313;-74
2022/04/24 04:32:42;;;;;;;37.67;31.90;;;8.10;99.90;;;;;;4879930;29;20262;-74
2022/04/24 04:35:10;;;;;;;37.27;32.50;;;8.10;99.90;;;;;;4880086;29;20242;-73
2022/04/24 04:37:39;;;;;;;38.17;33.10;;;8.10;99.90;;;;;;4884815;29;20210;-75
2022/04/24 04:40:11;;;;;;;38.90;33.80;;;8.10;99.90;;;;;;4887227;29;20220;-77
2022/04/24 04:42:40;;;;;;;36.70;32.63;;;8.10;99.90;;;;;;4881030;29;20355;-74
2022/04/24 04:45:09;;;;;;;38.03;33.17;;;8.10;99.90;;;;;;4880389;29;20270;-75
2022/04/24 04:47:37;;;;;;;38.50;34.40;;;8.20;99.90;;;;;;4880036;29;20218;-76
2022/04/24 04:50:06;;;;;;;37.60;33.23;;;8.20;99.90;;;;;;4880306;29;20218;-76
2022/04/24 04:52:35;;;;;;;39.37;33.20;;;8.20;99.90;;;;;;4880964;29;20206;-76
2022/04/24 04:55:05;;;;;;;38.10;32.83;;;8.20;99.90;;;;;;4880477;29;20250;-74
2022/04/24 04:57:40;;;;;;;38.57;33.83;;;8.20;99.90;;;;;;4874372;29;20226;-77
2022/04/24 05:00:13;;;;;;;40.30;35.03;;;8.30;99.90;;;;;;4861776;29;20305;-76
2022/04/24 05:02:42;;;;;;;40.03;34.97;;;8.30;99.90;;;;;;4863170;29;20227;-76
2022/04/24 05:05:11;;;;;;;39.33;34.90;;;8.30;99.90;;;;;;4862228;29;20282;-75
2022/04/24 05:07:39;;;;;;;40.77;35.30;;;8.30;99.90;;;;;;4862539;29;20214;-75
2022/04/24 05:10:09;;;;;;;42.53;35.57;;;8.30;99.90;;;;;;4860891;29;20292;-75
2022/04/24 05:12:38;;;;;;;44.43;36.93;;;8.30;99.90;;;;;;4862492;29;20301;-74
2022/04/24 05:15:08;;;;;;;41.17;36.63;;;8.30;99.90;;;;;;4861191;29;20628;-74
2022/04/24 05:17:37;;;;;;;45.47;38.00;;;8.30;99.90;;;;;;4861122;29;20303;-76
2022/04/24 05:20:08;;;;;;;42.67;37.83;;;8.40;99.90;;;;;;4860867;29;20574;-76
2022/04/24 05:22:36;;;;;;;42.33;36.50;;;8.40;99.90;;;;;;4861282;29;20747;-76
2022/04/24 05:25:06;;;;;;;44.07;37.70;;;8.40;99.90;;;;;;4860993;29;20223;-76
2022/04/24 05:27:37;;;;;;;44.10;37.13;;;8.40;99.90;;;;;;4863798;29;20236;-78
2022/04/24 05:30:09;;;;;;;42.80;36.00;;;8.40;99.90;;;;;;4861182;29;20617;-76
2022/04/24 05:32:42;;;;;;;44.07;38.93;;;8.30;99.90;;;;;;4860632;29;20260;-78
2022/04/24 05:35:11;;;;;;;46.50;38.90;;;8.40;99.90;;;;;;4860965;29;20270;-75
2022/04/24 05:37:40;;;;;;;45.97;38.57;;;8.30;99.90;;;;;;4866063;29;20568;-74
2022/04/24 05:40:09;;;;;;;44.03;38.60;;;8.30;99.90;;;;;;4869758;29;20236;-75
2022/04/24 05:42:45;;;;;;;48.57;39.63;;;8.30;99.90;;;;;;4871309;29;20322;-76
2022/04/24 05:45:18;;;;;;;45.20;37.10;;;8.30;99.90;;;;;;4869542;29;20238;-78
2022/04/24 05:47:47;;;;;;;46.97;39.43;;;8.40;99.90;;;;;;4862194;29;20191;-74
2022/04/24 05:50:18;;;;;;;46.10;39.07;;;8.30;99.90;;;;;;4861353;29;20242;-77
2022/04/24 05:52:48;;;;;;;47.83;38.77;;;8.30;99.90;;;;;;4861906;29;20272;-74
2022/04/24 05:55:16;;;;;;;45.77;38.27;;;8.40;99.90;;;;;;4861124;29;20234;-76
2022/04/24 05:57:44;;;;;;;46.50;39.50;;;8.30;99.90;;;;;;4861024;29;20737;-75
2022/04/24 06:00:16;;;;;;;45.37;38.40;;;8.30;99.90;;;;;;4862619;29;20315;-75
2022/04/24 06:02:51;;;;;;;47.13;39.63;;;8.30;99.90;;;;;;4863015;29;20211;-75
2022/04/24 06:05:19;;;;;;;48.00;40.03;;;8.30;99.90;;;;;;4860418;29;20305;-75
2022/04/24 06:07:47;;;;;;;47.50;39.67;;;8.30;99.90;;;;;;4860587;29;20234;-73
2022/04/24 06:10:16;;;;;;;46.53;39.33;;;8.30;99.90;;;;;;4860364;29;20310;-76
2022/04/24 06:12:46;;;;;;;48.17;40.33;;;8.40;99.90;;;;;;4860640;29;20210;-75
2022/04/24 06:15:20;;;;;;;45.10;38.20;;;8.50;99.90;;;;;;4860353;29;20689;-75
2022/04/24 06:17:50;;;;;;;42.73;37.53;;;8.50;99.90;;;;;;4860458;29;20641;-76
2022/04/24 06:20:18;;;;;;;43.03;36.40;;;8.60;99.90;;;;;;4860086;29;20234;-75
2022/04/24 06:22:48;;;;;;;41.70;36.80;;;8.70;99.90;;;;;;4860406;29;20243;-75
2022/04/24 06:25:18;;;;;;;43.07;37.30;;;8.80;99.90;;;;;;4860401;29;20701;-75
2022/04/24 06:27:47;;;;;;;38.03;33.93;;;9.10;99.90;;;;;;4861157;29;20238;-76
2022/04/24 06:30:18;;;;;;;33.07;29.47;;;9.90;99.90;;;;;;4859874;29;20215;-76
2022/04/24 06:32:46;;;;;;;29.80;26.80;;;11.40;99.90;;;;;;4860275;29;20444;-77
2022/04/24 06:35:16;;;;;;;29.40;26.37;;;13.10;99.90;;;;;;4859624;29;20237;-79
2022/04/24 06:37:46;;;;;;;27.90;25.10;;;14.40;99.90;;;;;;4859972;29;20211;-77
2022/04/24 20:49:40;;;;;;;1.93;1.60;;;8.40;99.90;;;;;;5564246;23;20309;-77
2022/04/24 20:52:09;;;;;;;1.53;1.43;;;8.30;99.90;;;;;;4872838;29;20214;-81
2022/04/24 20:54:37;;;;;;;1.83;1.10;;;8.30;99.90;;;;;;4880236;29;20251;-80
2022/04/24 20:57:07;;;;;;;1.10;1.00;;;8.30;99.90;;;;;;4880157;29;20210;-76
2022/04/24 20:59:35;;;;;;;1.07;1.03;;;8.30;99.90;;;;;;4879838;29;20198;-76
2022/04/24 21:02:04;;;;;;;1.10;1.10;;;8.20;99.90;;;;;;4881600;29;20303;-77
2022/04/24 21:04:33;;;;;;;1.93;1.17;;;8.20;99.90;;;;;;4881092;29;20226;-76
2022/04/24 21:07:03;;;;;;;1.40;1.00;;;8.20;99.90;;;;;;4880393;29;20673;-79
2022/04/24 21:09:31;;;;;;;1.33;1.20;;;8.20;99.90;;;;;;4880209;29;20221;-80
2022/04/24 21:12:00;;;;;;;1.00;1.00;;;8.10;99.90;;;;;;4880601;29;20218;-78
2022/04/24 21:14:29;;;;;;;1.40;1.30;;;8.10;99.90;;;;;;4880591;29;20213;-80
2022/04/24 21:17:20;;;;;;;1.33;1.23;;;8.10;99.90;;;;;;4880196;29;20246;-79
2022/04/24 21:19:48;;;;;;;1.30;1.20;;;8.10;99.90;;;;;;4880310;29;20526;-78
2022/04/24 21:22:18;;;;;;;2.10;1.10;;;8.10;99.90;;;;;;4879856;29;20210;-79
2022/04/24 21:24:46;;;;;;;1.67;1.30;;;8.00;99.90;;;;;;4880082;29;20608;-79
2022/04/24 21:27:15;;;;;;;1.70;1.10;;;8.10;99.90;;;;;;4880564;29;20214;-80
2022/04/24 21:29:44;;;;;;;1.80;1.20;;;8.00;99.90;;;;;;4880158;29;20215;-77
2022/04/24 21:32:12;;;;;;;1.17;1.03;;;8.10;99.90;;;;;;4879973;29;20668;-81
2022/04/24 21:34:40;;;;;;;1.57;1.00;;;8.00;99.90;;;;;;4879677;29;20218;-80
2022/04/24 21:37:08;;;;;;;1.57;1.07;;;8.10;99.90;;;;;;4879629;29;20772;-80
2022/04/24 21:39:38;;;;;;;1.57;1.27;;;8.00;99.90;;;;;;4879600;29;20293;-77
2022/04/24 21:42:07;;;;;;;1.00;1.00;;;8.00;99.90;;;;;;4879676;29;20642;-77
2022/04/24 21:44:35;;;;;;;1.27;1.17;;;8.00;99.90;;;;;;4879610;29;20325;-78
2022/04/24 21:47:04;;;;;;;1.73;1.00;;;8.00;99.90;;;;;;4879860;29;20237;-76
2022/04/24 21:49:33;;;;;;;1.30;1.10;;;8.00;99.90;;;;;;4879326;29;20273;-77
2022/04/24 21:52:01;;;;;;;2.63;1.00;;;8.00;99.90;;;;;;4879410;29;20748;-79
2022/04/24 21:54:29;;;;;;;1.20;1.10;;;8.00;99.90;;;;;;4879715;29;20253;-78
2022/04/24 21:56:59;;;;;;;2.37;1.20;;;8.00;99.90;;;;;;4879717;29;20210;-80
2022/04/24 21:59:27;;;;;;;1.43;1.33;;;8.10;99.90;;;;;;4879611;29;20263;-79
2022/04/24 22:05:01;;;;;;;1.40;1.30;;;8.10;99.90;;;;;;4879359;29;20261;-76
2022/04/24 22:07:30;;;;;;;2.63;1.40;;;8.00;99.90;;;;;;4879390;29;20236;-76
2022/04/24 22:09:58;;;;;;;1.57;1.23;;;7.90;99.90;;;;;;4879369;29;20306;-76
2022/04/24 22:12:27;;;;;;;1.80;1.30;;;8.00;99.90;;;;;;4879666;29;20234;-76
2022/04/24 22:14:55;;;;;;;1.30;1.20;;;8.00;99.90;;;;;;4879266;29;20207;-75
2022/04/24 22:17:24;;;;;;;1.60;1.50;;;8.00;99.90;;;;;;4880176;29;20246;-78
2022/04/24 22:19:52;;;;;;;2.90;1.63;;;8.00;99.90;;;;;;4879287;29;20266;-74
2022/04/24 22:25:11;;;;;;;1.73;1.60;;;8.00;99.90;;;;;;4879124;29;20242;-75
2022/04/24 22:27:41;;;;;;;1.50;1.40;;;8.00;99.90;;;;;;4879457;29;20297;-76
